sensor_id;sensor_type;location;lat;lon;timestamp;temperature;humidity
20005;DHT22;69160;45.498;-73.582;2023-07-13T00:00:42;23.00;94.30
20005;DHT22;69160;45.498;-73.582;2023-07-13T00:03:08;23.10;94.40
20005;DHT22;69160;45.498;-73.582;2023-07-13T00:05:34;23.20;94.50
20005;DHT22;69160;45.498;-73.582;2023-07-13T00:08:01;23.20;94.40
20005;DHT22;69160;45.498;-73.582;2023-07-13T00:10:27;23.20;94.40
20005;DHT22;69160;45.498;-73.582;2023-07-13T00:12:53;23.30;94.50
20005;DHT22;69160;45.498;-73.582;2023-07-13T00:15:23;23.30;94.50
20005;DHT22;69160;45.498;-73.582;2023-07-13T00:17:51;23.30;94.50
20005;DHT22;69160;45.498;-73.582;2023-07-13T00:20:18;23.30;94.50
20005;DHT22;69160;45.498;-73.582;2023-07-13T00:22:44;23.30;94.60
20005;DHT22;69160;45.498;-73.582;2023-07-13T00:25:11;23.30;94.60
20005;DHT22;69160;45.498;-73.582;2023-07-13T00:27:37;23.40;94.80
20005;DHT22;69160;45.498;-73.582;2023-07-13T00:30:04;23.40;94.80
20005;DHT22;69160;45.498;-73.582;2023-07-13T00:32:31;23.40;94.80
20005;DHT22;69160;45.498;-73.582;2023-07-13T00:34:57;23.40;94.80
20005;DHT22;69160;45.498;-73.582;2023-07-13T00:37:26;23.40;94.90
20005;DHT22;69160;45.498;-73.582;2023-07-13T00:39:52;23.50;94.90
20005;DHT22;69160;45.498;-73.582;2023-07-13T00:42:18;23.50;95.00
20005;DHT22;69160;45.498;-73.582;2023-07-13T00:47:50;23.50;95.00
20005;DHT22;69160;45.498;-73.582;2023-07-13T00:50:16;23.50;95.10
20005;DHT22;69160;45.498;-73.582;2023-07-13T00:52:46;23.60;95.10
20005;DHT22;69160;45.498;-73.582;2023-07-13T00:55:14;23.50;95.10
20005;DHT22;69160;45.498;-73.582;2023-07-13T00:57:42;23.50;95.10
20005;DHT22;69160;45.498;-73.582;2023-07-13T01:00:09;23.60;95.20
20005;DHT22;69160;45.498;-73.582;2023-07-13T01:02:44;23.50;95.20
20005;DHT22;69160;45.498;-73.582;2023-07-13T01:05:13;23.60;95.30
20005;DHT22;69160;45.498;-73.582;2023-07-13T01:07:41;23.60;95.30
20005;DHT22;69160;45.498;-73.582;2023-07-13T01:10:08;23.60;95.30
20005;DHT22;69160;45.498;-73.582;2023-07-13T01:12:34;23.60;95.30
20005;DHT22;69160;45.498;-73.582;2023-07-13T01:15:01;23.60;95.30
20005;DHT22;69160;45.498;-73.582;2023-07-13T01:17:29;23.60;95.30
20005;DHT22;69160;45.498;-73.582;2023-07-13T01:19:55;23.60;95.30
20005;DHT22;69160;45.498;-73.582;2023-07-13T01:22:22;23.60;95.00
20005;DHT22;69160;45.498;-73.582;2023-07-13T01:24:54;23.60;93.90
20005;DHT22;69160;45.498;-73.582;2023-07-13T01:27:25;23.50;93.30
20005;DHT22;69160;45.498;-73.582;2023-07-13T01:29:53;23.40;92.70
20005;DHT22;69160;45.498;-73.582;2023-07-13T01:32:27;23.30;92.40
20005;DHT22;69160;45.498;-73.582;2023-07-13T01:34:54;23.10;92.10
20005;DHT22;69160;45.498;-73.582;2023-07-13T01:37:21;23.00;92.00
20005;DHT22;69160;45.498;-73.582;2023-07-13T01:39:47;22.90;91.70
20005;DHT22;69160;45.498;-73.582;2023-07-13T01:42:14;22.80;91.50
20005;DHT22;69160;45.498;-73.582;2023-07-13T01:44:41;22.80;91.30
20005;DHT22;69160;45.498;-73.582;2023-07-13T01:47:07;22.80;90.90
20005;DHT22;69160;45.498;-73.582;2023-07-13T01:49:33;22.80;90.90
20005;DHT22;69160;45.498;-73.582;2023-07-13T01:52:00;22.70;90.70
20005;DHT22;69160;45.498;-73.582;2023-07-13T01:54:26;22.70;90.70
20005;DHT22;69160;45.498;-73.582;2023-07-13T01:56:53;22.60;90.50
20005;DHT22;69160;45.498;-73.582;2023-07-13T01:59:19;22.60;90.20
20005;DHT22;69160;45.498;-73.582;2023-07-13T02:01:45;22.60;90.40
20005;DHT22;69160;45.498;-73.582;2023-07-13T02:04:11;22.60;90.00
20005;DHT22;69160;45.498;-73.582;2023-07-13T02:06:37;22.60;89.70
20005;DHT22;69160;45.498;-73.582;2023-07-13T02:09:03;22.60;89.20
20005;DHT22;69160;45.498;-73.582;2023-07-13T02:11:29;22.60;89.00
20005;DHT22;69160;45.498;-73.582;2023-07-13T02:14:02;22.50;89.00
20005;DHT22;69160;45.498;-73.582;2023-07-13T02:16:29;22.50;88.90
20005;DHT22;69160;45.498;-73.582;2023-07-13T02:18:55;22.50;88.80
20005;DHT22;69160;45.498;-73.582;2023-07-13T02:21:22;22.50;88.10
20005;DHT22;69160;45.498;-73.582;2023-07-13T02:23:49;22.50;91.00
20005;DHT22;69160;45.498;-73.582;2023-07-13T02:26:15;22.60;92.10
20005;DHT22;69160;45.498;-73.582;2023-07-13T02:28:42;22.60;92.60
20005;DHT22;69160;45.498;-73.582;2023-07-13T02:31:10;22.60;92.90
20005;DHT22;69160;45.498;-73.582;2023-07-13T02:33:36;22.70;93.30
20005;DHT22;69160;45.498;-73.582;2023-07-13T02:36:02;22.70;93.50
20005;DHT22;69160;45.498;-73.582;2023-07-13T02:38:32;22.70;93.60
20005;DHT22;69160;45.498;-73.582;2023-07-13T02:41:06;22.80;93.70
20005;DHT22;69160;45.498;-73.582;2023-07-13T02:43:32;22.80;93.80
20005;DHT22;69160;45.498;-73.582;2023-07-13T02:45:59;22.90;94.00
20005;DHT22;69160;45.498;-73.582;2023-07-13T02:48:30;22.90;94.00
20005;DHT22;69160;45.498;-73.582;2023-07-13T02:50:56;23.00;94.10
20005;DHT22;69160;45.498;-73.582;2023-07-13T02:53:22;23.00;94.20
20005;DHT22;69160;45.498;-73.582;2023-07-13T02:55:48;23.00;94.30
20005;DHT22;69160;45.498;-73.582;2023-07-13T02:58:14;23.00;94.40
20005;DHT22;69160;45.498;-73.582;2023-07-13T03:00:44;23.10;94.50
20005;DHT22;69160;45.498;-73.582;2023-07-13T03:03:12;23.10;94.50
20005;DHT22;69160;45.498;-73.582;2023-07-13T03:05:43;23.10;94.60
20005;DHT22;69160;45.498;-73.582;2023-07-13T03:08:16;23.10;94.60
20005;DHT22;69160;45.498;-73.582;2023-07-13T03:10:43;23.10;94.70
20005;DHT22;69160;45.498;-73.582;2023-07-13T03:13:09;23.10;94.70
20005;DHT22;69160;45.498;-73.582;2023-07-13T03:15:36;23.10;94.80
20005;DHT22;69160;45.498;-73.582;2023-07-13T03:18:02;23.10;94.80
20005;DHT22;69160;45.498;-73.582;2023-07-13T03:20:28;23.20;94.90
20005;DHT22;69160;45.498;-73.582;2023-07-13T03:22:54;23.20;94.90
20005;DHT22;69160;45.498;-73.582;2023-07-13T03:25:20;23.20;95.00
20005;DHT22;69160;45.498;-73.582;2023-07-13T03:27:46;23.20;95.00
20005;DHT22;69160;45.498;-73.582;2023-07-13T03:30:13;23.20;95.10
20005;DHT22;69160;45.498;-73.582;2023-07-13T03:32:39;23.20;95.10
20005;DHT22;69160;45.498;-73.582;2023-07-13T03:35:05;23.20;95.20
20005;DHT22;69160;45.498;-73.582;2023-07-13T03:37:31;23.20;95.20
20005;DHT22;69160;45.498;-73.582;2023-07-13T03:39:57;23.20;95.20
20005;DHT22;69160;45.498;-73.582;2023-07-13T03:42:24;23.20;95.30
20005;DHT22;69160;45.498;-73.582;2023-07-13T03:44:50;23.30;95.20
20005;DHT22;69160;45.498;-73.582;2023-07-13T03:47:18;23.20;95.30
20005;DHT22;69160;45.498;-73.582;2023-07-13T03:49:44;23.30;95.30
20005;DHT22;69160;45.498;-73.582;2023-07-13T03:52:11;23.30;95.30
20005;DHT22;69160;45.498;-73.582;2023-07-13T03:54:38;23.30;95.40
20005;DHT22;69160;45.498;-73.582;2023-07-13T03:57:04;23.30;95.40
20005;DHT22;69160;45.498;-73.582;2023-07-13T03:59:31;23.30;95.40
20005;DHT22;69160;45.498;-73.582;2023-07-13T04:01:57;23.30;95.50
20005;DHT22;69160;45.498;-73.582;2023-07-13T04:04:23;23.30;94.80
20005;DHT22;69160;45.498;-73.582;2023-07-13T04:06:49;23.20;93.90
20005;DHT22;69160;45.498;-73.582;2023-07-13T04:09:15;23.10;93.20
20005;DHT22;69160;45.498;-73.582;2023-07-13T04:11:41;23.00;92.70
20005;DHT22;69160;45.498;-73.582;2023-07-13T04:14:07;22.90;92.40
20005;DHT22;69160;45.498;-73.582;2023-07-13T04:16:33;22.80;92.00
20005;DHT22;69160;45.498;-73.582;2023-07-13T04:19:00;22.70;91.60
20005;DHT22;69160;45.498;-73.582;2023-07-13T04:21:27;22.70;91.30
20005;DHT22;69160;45.498;-73.582;2023-07-13T04:23:55;22.70;91.20
20005;DHT22;69160;45.498;-73.582;2023-07-13T04:26:21;22.70;90.80
20005;DHT22;69160;45.498;-73.582;2023-07-13T04:28:49;22.60;90.60
20005;DHT22;69160;45.498;-73.582;2023-07-13T04:31:16;22.50;90.50
20005;DHT22;69160;45.498;-73.582;2023-07-13T04:33:42;22.50;90.20
20005;DHT22;69160;45.498;-73.582;2023-07-13T04:36:09;22.40;90.10
20005;DHT22;69160;45.498;-73.582;2023-07-13T04:38:36;22.40;90.00
20005;DHT22;69160;45.498;-73.582;2023-07-13T04:41:05;22.40;89.80
20005;DHT22;69160;45.498;-73.582;2023-07-13T04:43:32;22.50;89.20
20005;DHT22;69160;45.498;-73.582;2023-07-13T04:46:04;22.40;89.00
20005;DHT22;69160;45.498;-73.582;2023-07-13T04:48:31;22.40;89.00
20005;DHT22;69160;45.498;-73.582;2023-07-13T04:50:58;22.40;88.70
20005;DHT22;69160;45.498;-73.582;2023-07-13T04:53:25;22.30;88.50
20005;DHT22;69160;45.498;-73.582;2023-07-13T04:55:51;22.30;87.60
20005;DHT22;69160;45.498;-73.582;2023-07-13T04:58:17;22.20;87.70
20005;DHT22;69160;45.498;-73.582;2023-07-13T05:00:43;22.20;87.90
20005;DHT22;69160;45.498;-73.582;2023-07-13T05:03:10;22.20;88.40
20005;DHT22;69160;45.498;-73.582;2023-07-13T05:05:36;22.30;91.10
20005;DHT22;69160;45.498;-73.582;2023-07-13T05:08:02;22.30;92.00
20005;DHT22;69160;45.498;-73.582;2023-07-13T05:10:29;22.40;92.20
20005;DHT22;69160;45.498;-73.582;2023-07-13T05:12:55;22.40;92.80
20005;DHT22;69160;45.498;-73.582;2023-07-13T05:15:22;22.40;93.10
20005;DHT22;69160;45.498;-73.582;2023-07-13T05:17:49;22.50;93.10
20005;DHT22;69160;45.498;-73.582;2023-07-13T05:20:17;22.50;93.40
20005;DHT22;69160;45.498;-73.582;2023-07-13T05:22:44;22.50;93.40
20005;DHT22;69160;45.498;-73.582;2023-07-13T05:25:13;22.60;93.50
20005;DHT22;69160;45.498;-73.582;2023-07-13T05:27:39;22.70;93.60
20005;DHT22;69160;45.498;-73.582;2023-07-13T05:30:06;22.70;93.60
20005;DHT22;69160;45.498;-73.582;2023-07-13T05:32:33;22.80;93.80
20005;DHT22;69160;45.498;-73.582;2023-07-13T05:34:59;22.80;93.80
20005;DHT22;69160;45.498;-73.582;2023-07-13T05:37:25;22.80;93.90
20005;DHT22;69160;45.498;-73.582;2023-07-13T05:39:51;22.80;93.90
20005;DHT22;69160;45.498;-73.582;2023-07-13T05:42:17;22.80;94.30
20005;DHT22;69160;45.498;-73.582;2023-07-13T05:44:44;22.90;94.10
20005;DHT22;69160;45.498;-73.582;2023-07-13T05:47:10;22.90;94.20
20005;DHT22;69160;45.498;-73.582;2023-07-13T05:49:36;22.90;94.10
20005;DHT22;69160;45.498;-73.582;2023-07-13T05:52:03;22.90;94.20
20005;DHT22;69160;45.498;-73.582;2023-07-13T05:54:29;23.00;94.20
20005;DHT22;69160;45.498;-73.582;2023-07-13T05:56:55;23.00;94.20
20005;DHT22;69160;45.498;-73.582;2023-07-13T05:59:21;23.00;94.30
20005;DHT22;69160;45.498;-73.582;2023-07-13T06:01:48;23.10;94.30
20005;DHT22;69160;45.498;-73.582;2023-07-13T06:04:14;23.10;94.40
20005;DHT22;69160;45.498;-73.582;2023-07-13T06:06:40;23.10;94.40
20005;DHT22;69160;45.498;-73.582;2023-07-13T06:09:06;23.10;94.40
20005;DHT22;69160;45.498;-73.582;2023-07-13T06:11:33;23.10;94.40
20005;DHT22;69160;45.498;-73.582;2023-07-13T06:14:00;23.10;94.40
20005;DHT22;69160;45.498;-73.582;2023-07-13T06:16:26;23.00;94.40
20005;DHT22;69160;45.498;-73.582;2023-07-13T06:18:52;23.00;94.50
20005;DHT22;69160;45.498;-73.582;2023-07-13T06:21:20;23.10;94.50
20005;DHT22;69160;45.498;-73.582;2023-07-13T06:23:48;23.10;94.50
20005;DHT22;69160;45.498;-73.582;2023-07-13T06:26:14;23.10;94.50
20005;DHT22;69160;45.498;-73.582;2023-07-13T06:28:41;23.00;94.50
20005;DHT22;69160;45.498;-73.582;2023-07-13T06:31:09;23.10;94.60
20005;DHT22;69160;45.498;-73.582;2023-07-13T06:33:35;23.10;94.50
20005;DHT22;69160;45.498;-73.582;2023-07-13T06:36:04;23.10;94.50
20005;DHT22;69160;45.498;-73.582;2023-07-13T06:38:31;23.10;94.50
20005;DHT22;69160;45.498;-73.582;2023-07-13T06:40:57;23.10;94.60
20005;DHT22;69160;45.498;-73.582;2023-07-13T06:43:23;23.10;94.60
20005;DHT22;69160;45.498;-73.582;2023-07-13T06:45:55;23.10;94.60
20005;DHT22;69160;45.498;-73.582;2023-07-13T06:48:21;23.10;94.60
20005;DHT22;69160;45.498;-73.582;2023-07-13T06:50:49;23.10;94.60
20005;DHT22;69160;45.498;-73.582;2023-07-13T06:53:17;23.10;94.60
20005;DHT22;69160;45.498;-73.582;2023-07-13T06:55:44;23.10;94.40
20005;DHT22;69160;45.498;-73.582;2023-07-13T06:58:11;23.00;93.40
20005;DHT22;69160;45.498;-73.582;2023-07-13T07:00:37;22.90;92.60
20005;DHT22;69160;45.498;-73.582;2023-07-13T07:03:05;22.80;92.10
20005;DHT22;69160;45.498;-73.582;2023-07-13T07:05:32;22.80;91.70
20005;DHT22;69160;45.498;-73.582;2023-07-13T07:07:59;22.70;91.50
20005;DHT22;69160;45.498;-73.582;2023-07-13T07:10:25;22.60;91.10
20005;DHT22;69160;45.498;-73.582;2023-07-13T07:12:51;22.60;90.70
20005;DHT22;69160;45.498;-73.582;2023-07-13T07:15:18;22.50;90.60
20005;DHT22;69160;45.498;-73.582;2023-07-13T07:17:45;22.50;90.20
20005;DHT22;69160;45.498;-73.582;2023-07-13T07:20:11;22.40;89.90
20005;DHT22;69160;45.498;-73.582;2023-07-13T07:22:37;22.40;89.60
20005;DHT22;69160;45.498;-73.582;2023-07-13T07:25:04;22.40;89.30
20005;DHT22;69160;45.498;-73.582;2023-07-13T07:27:30;22.30;89.10
20005;DHT22;69160;45.498;-73.582;2023-07-13T07:29:56;22.20;88.80
20005;DHT22;69160;45.498;-73.582;2023-07-13T07:32:25;22.20;88.20
20005;DHT22;69160;45.498;-73.582;2023-07-13T07:34:51;22.20;88.00
20005;DHT22;69160;45.498;-73.582;2023-07-13T07:37:17;22.20;87.60
20005;DHT22;69160;45.498;-73.582;2023-07-13T07:39:44;22.20;87.50
20005;DHT22;69160;45.498;-73.582;2023-07-13T07:42:10;22.20;90.40
20005;DHT22;69160;45.498;-73.582;2023-07-13T07:44:39;22.30;91.50
20005;DHT22;69160;45.498;-73.582;2023-07-13T07:47:06;22.40;92.40
20005;DHT22;69160;45.498;-73.582;2023-07-13T07:49:33;22.40;92.60
20005;DHT22;69160;45.498;-73.582;2023-07-13T07:51:59;22.40;92.90
20005;DHT22;69160;45.498;-73.582;2023-07-13T07:54:25;22.50;93.00
20005;DHT22;69160;45.498;-73.582;2023-07-13T07:56:51;22.50;93.20
20005;DHT22;69160;45.498;-73.582;2023-07-13T07:59:17;22.50;93.40
20005;DHT22;69160;45.498;-73.582;2023-07-13T08:01:43;22.60;93.50
20005;DHT22;69160;45.498;-73.582;2023-07-13T08:04:12;22.60;93.50
20005;DHT22;69160;45.498;-73.582;2023-07-13T08:06:38;22.60;93.60
20005;DHT22;69160;45.498;-73.582;2023-07-13T08:09:04;22.70;93.70
20005;DHT22;69160;45.498;-73.582;2023-07-13T08:11:30;22.70;93.70
20005;DHT22;69160;45.498;-73.582;2023-07-13T08:13:56;22.80;93.80
20005;DHT22;69160;45.498;-73.582;2023-07-13T08:16:23;22.80;93.90
20005;DHT22;69160;45.498;-73.582;2023-07-13T08:18:49;22.80;94.00
20005;DHT22;69160;45.498;-73.582;2023-07-13T08:21:16;22.80;94.00
20005;DHT22;69160;45.498;-73.582;2023-07-13T08:23:42;22.80;94.10
20005;DHT22;69160;45.498;-73.582;2023-07-13T08:26:09;22.90;94.20
20005;DHT22;69160;45.498;-73.582;2023-07-13T08:28:35;22.90;94.20
20005;DHT22;69160;45.498;-73.582;2023-07-13T08:31:06;22.90;94.30
20005;DHT22;69160;45.498;-73.582;2023-07-13T08:33:35;22.90;94.60
20005;DHT22;69160;45.498;-73.582;2023-07-13T08:36:01;22.90;94.30
20005;DHT22;69160;45.498;-73.582;2023-07-13T08:38:27;22.90;94.30
20005;DHT22;69160;45.498;-73.582;2023-07-13T08:40:56;22.90;94.40
20005;DHT22;69160;45.498;-73.582;2023-07-13T08:43:35;22.90;94.40
20005;DHT22;69160;45.498;-73.582;2023-07-13T08:46:23;23.00;94.50
20005;DHT22;69160;45.498;-73.582;2023-07-13T08:48:56;22.90;94.50
20005;DHT22;69160;45.498;-73.582;2023-07-13T08:51:44;23.00;94.50
20005;DHT22;69160;45.498;-73.582;2023-07-13T08:56:46;23.00;94.60
20005;DHT22;69160;45.498;-73.582;2023-07-13T08:59:17;23.00;94.50
20005;DHT22;69160;45.498;-73.582;2023-07-13T09:04:34;23.00;94.50
20005;DHT22;69160;45.498;-73.582;2023-07-13T09:15:50;23.00;94.60
20005;DHT22;69160;45.498;-73.582;2023-07-13T09:18:38;23.00;94.60
20005;DHT22;69160;45.498;-73.582;2023-07-13T09:21:31;23.10;94.70
20005;DHT22;69160;45.498;-73.582;2023-07-13T09:24:35;23.00;94.60
20005;DHT22;69160;45.498;-73.582;2023-07-13T09:27:14;23.00;94.70
20005;DHT22;69160;45.498;-73.582;2023-07-13T09:29:48;23.00;94.70
20005;DHT22;69160;45.498;-73.582;2023-07-13T09:32:18;23.10;94.70
20005;DHT22;69160;45.498;-73.582;2023-07-13T09:34:54;23.00;94.70
20005;DHT22;69160;45.498;-73.582;2023-07-13T09:37:22;23.00;94.70
20005;DHT22;69160;45.498;-73.582;2023-07-13T09:39:49;23.00;94.80
20005;DHT22;69160;45.498;-73.582;2023-07-13T09:42:19;23.00;94.80
20005;DHT22;69160;45.498;-73.582;2023-07-13T09:44:55;23.10;94.90
20005;DHT22;69160;45.498;-73.582;2023-07-13T09:47:24;23.10;94.90
20005;DHT22;69160;45.498;-73.582;2023-07-13T09:50:09;23.10;94.90
20005;DHT22;69160;45.498;-73.582;2023-07-13T09:52:43;23.10;94.90
20005;DHT22;69160;45.498;-73.582;2023-07-13T09:55:30;23.10;95.00
20005;DHT22;69160;45.498;-73.582;2023-07-13T09:57:57;23.10;94.60
20005;DHT22;69160;45.498;-73.582;2023-07-13T10:00:29;23.00;93.90
20005;DHT22;69160;45.498;-73.582;2023-07-13T10:03:21;22.90;92.80
20005;DHT22;69160;45.498;-73.582;2023-07-13T10:05:47;22.80;92.20
20005;DHT22;69160;45.498;-73.582;2023-07-13T10:08:27;22.70;91.80
20005;DHT22;69160;45.498;-73.582;2023-07-13T10:11:01;22.60;91.40
20005;DHT22;69160;45.498;-73.582;2023-07-13T10:13:37;22.50;91.00
20005;DHT22;69160;45.498;-73.582;2023-07-13T10:16:07;22.50;90.70
20005;DHT22;69160;45.498;-73.582;2023-07-13T10:18:42;22.40;90.50
20005;DHT22;69160;45.498;-73.582;2023-07-13T10:21:19;22.40;90.20
20005;DHT22;69160;45.498;-73.582;2023-07-13T10:23:55;22.40;90.00
20005;DHT22;69160;45.498;-73.582;2023-07-13T10:26:31;22.40;90.00
20005;DHT22;69160;45.498;-73.582;2023-07-13T10:29:02;22.50;92.00
20005;DHT22;69160;45.498;-73.582;2023-07-13T10:31:30;22.50;93.00
20005;DHT22;69160;45.498;-73.582;2023-07-13T10:33:57;22.60;93.70
20005;DHT22;69160;45.498;-73.582;2023-07-13T10:39:28;22.60;94.30
20005;DHT22;69160;45.498;-73.582;2023-07-13T10:42:00;22.60;94.50
20005;DHT22;69160;45.498;-73.582;2023-07-13T10:44:30;22.60;93.70
20005;DHT22;69160;45.498;-73.582;2023-07-13T10:47:10;22.60;92.70
20005;DHT22;69160;45.498;-73.582;2023-07-13T10:49:40;22.50;91.90
20005;DHT22;69160;45.498;-73.582;2023-07-13T10:52:20;22.50;91.30
20005;DHT22;69160;45.498;-73.582;2023-07-13T10:54:54;22.50;90.90
20005;DHT22;69160;45.498;-73.582;2023-07-13T10:57:22;22.40;91.00
20005;DHT22;69160;45.498;-73.582;2023-07-13T11:00:16;22.40;92.70
20005;DHT22;69160;45.498;-73.582;2023-07-13T11:02:43;22.50;93.90
20005;DHT22;69160;45.498;-73.582;2023-07-13T11:05:28;22.50;94.50
20005;DHT22;69160;45.498;-73.582;2023-07-13T11:08:04;22.50;94.90
20005;DHT22;69160;45.498;-73.582;2023-07-13T11:10:53;22.50;95.50
20005;DHT22;69160;45.498;-73.582;2023-07-13T11:14:00;22.50;95.70
20005;DHT22;69160;45.498;-73.582;2023-07-13T11:16:44;22.50;96.10
20005;DHT22;69160;45.498;-73.582;2023-07-13T11:24:30;22.80;95.80
20005;DHT22;69160;45.498;-73.582;2023-07-13T11:27:44;22.90;96.20
20005;DHT22;69160;45.498;-73.582;2023-07-13T11:32:52;23.10;96.60
20005;DHT22;69160;45.498;-73.582;2023-07-13T11:35:29;23.10;96.40
20005;DHT22;69160;45.498;-73.582;2023-07-13T11:37:55;23.20;96.30
20005;DHT22;69160;45.498;-73.582;2023-07-13T11:40:24;23.20;96.20
20005;DHT22;69160;45.498;-73.582;2023-07-13T11:42:52;23.20;96.20
20005;DHT22;69160;45.498;-73.582;2023-07-13T11:45:20;23.20;96.20
20005;DHT22;69160;45.498;-73.582;2023-07-13T11:47:50;23.30;96.10
20005;DHT22;69160;45.498;-73.582;2023-07-13T11:50:22;23.30;96.00
20005;DHT22;69160;45.498;-73.582;2023-07-13T11:52:50;23.30;95.90
20005;DHT22;69160;45.498;-73.582;2023-07-13T11:55:20;23.30;95.90
20005;DHT22;69160;45.498;-73.582;2023-07-13T11:57:59;23.30;96.00
20005;DHT22;69160;45.498;-73.582;2023-07-13T12:00:29;23.30;95.80
20005;DHT22;69160;45.498;-73.582;2023-07-13T12:02:59;23.30;95.70
20005;DHT22;69160;45.498;-73.582;2023-07-13T12:05:26;23.30;95.70
20005;DHT22;69160;45.498;-73.582;2023-07-13T12:07:53;23.30;95.70
20005;DHT22;69160;45.498;-73.582;2023-07-13T12:10:28;23.30;95.80
20005;DHT22;69160;45.498;-73.582;2023-07-13T12:13:00;23.40;96.30
20005;DHT22;69160;45.498;-73.582;2023-07-13T12:15:44;23.40;96.70
20005;DHT22;69160;45.498;-73.582;2023-07-13T12:18:15;23.40;96.80
20005;DHT22;69160;45.498;-73.582;2023-07-13T12:20:41;23.40;96.80
20005;DHT22;69160;45.498;-73.582;2023-07-13T12:23:28;23.50;98.00
20005;DHT22;69160;45.498;-73.582;2023-07-13T12:25:55;23.50;98.70
20005;DHT22;69160;45.498;-73.582;2023-07-13T12:28:37;23.50;98.70
20005;DHT22;69160;45.498;-73.582;2023-07-13T12:31:06;23.50;97.90
20005;DHT22;69160;45.498;-73.582;2023-07-13T12:33:33;23.50;97.30
20005;DHT22;69160;45.498;-73.582;2023-07-13T12:36:02;23.50;97.20
20005;DHT22;69160;45.498;-73.582;2023-07-13T12:38:30;23.50;97.20
20005;DHT22;69160;45.498;-73.582;2023-07-13T12:40:56;23.50;96.90
20005;DHT22;69160;45.498;-73.582;2023-07-13T12:43:24;23.50;96.80
20005;DHT22;69160;45.498;-73.582;2023-07-13T12:46:20;23.50;96.80
20005;DHT22;69160;45.498;-73.582;2023-07-13T12:48:52;23.60;96.70
20005;DHT22;69160;45.498;-73.582;2023-07-13T12:51:24;23.50;96.60
20005;DHT22;69160;45.498;-73.582;2023-07-13T12:53:58;23.60;96.60
20005;DHT22;69160;45.498;-73.582;2023-07-13T12:56:33;23.60;96.70
20005;DHT22;69160;45.498;-73.582;2023-07-13T12:59:02;23.60;96.60
20005;DHT22;69160;45.498;-73.582;2023-07-13T13:01:32;23.60;96.60
20005;DHT22;69160;45.498;-73.582;2023-07-13T13:04:02;23.60;96.60
20005;DHT22;69160;45.498;-73.582;2023-07-13T13:06:37;23.60;96.60
20005;DHT22;69160;45.498;-73.582;2023-07-13T13:09:05;23.60;96.70
20005;DHT22;69160;45.498;-73.582;2023-07-13T13:11:35;23.60;96.60
20005;DHT22;69160;45.498;-73.582;2023-07-13T13:14:01;23.60;96.60
20005;DHT22;69160;45.498;-73.582;2023-07-13T13:16:32;23.50;95.30
20005;DHT22;69160;45.498;-73.582;2023-07-13T13:19:17;23.40;94.40
20005;DHT22;69160;45.498;-73.582;2023-07-13T13:21:45;23.30;93.40
20005;DHT22;69160;45.498;-73.582;2023-07-13T13:24:17;23.10;92.80
20005;DHT22;69160;45.498;-73.582;2023-07-13T13:26:44;23.10;92.20
20005;DHT22;69160;45.498;-73.582;2023-07-13T13:29:23;22.90;92.00
20005;DHT22;69160;45.498;-73.582;2023-07-13T13:31:53;22.90;91.60
20005;DHT22;69160;45.498;-73.582;2023-07-13T13:34:20;22.80;91.70
20005;DHT22;69160;45.498;-73.582;2023-07-13T13:36:50;22.90;93.30
20005;DHT22;69160;45.498;-73.582;2023-07-13T13:39:28;22.90;94.40
20005;DHT22;69160;45.498;-73.582;2023-07-13T13:41:55;22.90;95.40
20005;DHT22;69160;45.498;-73.582;2023-07-13T13:44:22;23.00;95.70
20005;DHT22;69160;45.498;-73.582;2023-07-13T13:46:52;23.00;94.50
20005;DHT22;69160;45.498;-73.582;2023-07-13T13:49:24;22.90;93.40
20005;DHT22;69160;45.498;-73.582;2023-07-13T13:51:52;22.90;92.70
20005;DHT22;69160;45.498;-73.582;2023-07-13T13:54:19;22.80;92.00
20005;DHT22;69160;45.498;-73.582;2023-07-13T13:56:49;22.80;92.40
20005;DHT22;69160;45.498;-73.582;2023-07-13T13:59:15;22.90;94.10
20005;DHT22;69160;45.498;-73.582;2023-07-13T14:01:43;23.00;95.20
20005;DHT22;69160;45.498;-73.582;2023-07-13T14:04:16;23.00;96.10
20005;DHT22;69160;45.498;-73.582;2023-07-13T14:06:43;23.10;96.60
20005;DHT22;69160;45.498;-73.582;2023-07-13T14:09:12;23.10;97.00
20005;DHT22;69160;45.498;-73.582;2023-07-13T14:11:39;23.20;97.50
20005;DHT22;69160;45.498;-73.582;2023-07-13T14:14:25;23.20;97.70
20005;DHT22;69160;45.498;-73.582;2023-07-13T14:16:53;23.20;97.90
20005;DHT22;69160;45.498;-73.582;2023-07-13T14:19:21;23.20;97.90
20005;DHT22;69160;45.498;-73.582;2023-07-13T14:21:47;23.30;98.00
20005;DHT22;69160;45.498;-73.582;2023-07-13T14:24:15;23.30;97.90
20005;DHT22;69160;45.498;-73.582;2023-07-13T14:26:41;23.30;97.80
20005;DHT22;69160;45.498;-73.582;2023-07-13T14:29:19;23.30;97.90
20005;DHT22;69160;45.498;-73.582;2023-07-13T14:31:47;23.30;97.90
20005;DHT22;69160;45.498;-73.582;2023-07-13T14:34:13;23.30;97.90
20005;DHT22;69160;45.498;-73.582;2023-07-13T14:36:41;23.30;97.90
20005;DHT22;69160;45.498;-73.582;2023-07-13T14:39:19;23.30;97.90
20005;DHT22;69160;45.498;-73.582;2023-07-13T14:41:51;23.30;97.90
20005;DHT22;69160;45.498;-73.582;2023-07-13T14:44:22;23.40;98.00
20005;DHT22;69160;45.498;-73.582;2023-07-13T14:46:50;23.40;98.00
20005;DHT22;69160;45.498;-73.582;2023-07-13T14:49:42;23.40;97.90
20005;DHT22;69160;45.498;-73.582;2023-07-13T14:52:17;23.40;98.00
20005;DHT22;69160;45.498;-73.582;2023-07-13T14:54:44;23.40;97.90
20005;DHT22;69160;45.498;-73.582;2023-07-13T14:57:17;23.40;98.00
20005;DHT22;69160;45.498;-73.582;2023-07-13T14:59:44;23.40;98.00
20005;DHT22;69160;45.498;-73.582;2023-07-13T15:02:50;23.40;98.00
20005;DHT22;69160;45.498;-73.582;2023-07-13T15:05:21;23.50;97.80
20005;DHT22;69160;45.498;-73.582;2023-07-13T15:07:49;23.50;98.00
20005;DHT22;69160;45.498;-73.582;2023-07-13T15:10:17;23.50;98.10
20005;DHT22;69160;45.498;-73.582;2023-07-13T15:12:44;23.50;98.20
20005;DHT22;69160;45.498;-73.582;2023-07-13T15:15:12;23.50;98.20
20005;DHT22;69160;45.498;-73.582;2023-07-13T15:17:44;23.50;98.30
20005;DHT22;69160;45.498;-73.582;2023-07-13T15:20:32;23.60;98.30
20005;DHT22;69160;45.498;-73.582;2023-07-13T15:22:58;23.60;98.20
20005;DHT22;69160;45.498;-73.582;2023-07-13T15:25:26;23.70;98.30
20005;DHT22;69160;45.498;-73.582;2023-07-13T15:27:55;23.80;98.60
20005;DHT22;69160;45.498;-73.582;2023-07-13T15:30:22;23.80;98.40
20005;DHT22;69160;45.498;-73.582;2023-07-13T15:32:48;23.80;98.40
20005;DHT22;69160;45.498;-73.582;2023-07-13T15:35:21;23.80;98.40
20005;DHT22;69160;45.498;-73.582;2023-07-13T15:37:48;23.80;98.50
20005;DHT22;69160;45.498;-73.582;2023-07-13T15:40:16;23.80;99.00
20005;DHT22;69160;45.498;-73.582;2023-07-13T15:42:43;23.80;99.30
20005;DHT22;69160;45.498;-73.582;2023-07-13T15:45:23;23.80;99.30